Time;durP1;ratioP1;P1;durP2;ratioP2;P2;SDS_P1;SDS_P2;PMS_P1;PMS_P2;Temp;Humidity;BMP_temperature;BMP_pressure;BME280_temperature;BME280_humidity;BME280_pressure;Samples;Min_cycle;Max_cycle;Signal;HPM_P1;HPM_P2
2021/01/20 00:00:07;;;;;;;16.43;5.60;;;;;;;;;;5129643;28;20072;-87
2021/01/20 00:02:32;;;;;;;10.80;4.80;;;;;;;;;;5130237;28;20019;-87
2021/01/20 00:04:58;;;;;;;11.20;3.90;;;;;;;;;;5129712;28;20042;-87
2021/01/20 00:07:23;;;;;;;8.67;4.47;;;;;;;;;;5131187;28;20024;-88
2021/01/20 00:09:48;;;;;;;9.23;4.67;;;;;;;;;;5129200;28;20077;-87
2021/01/20 00:12:13;;;;;;;11.77;5.77;;;;;;;;;;5129346;27;20023;-87
2021/01/20 00:14:38;;;;;;;11.50;4.70;;;;;;;;;;5132353;27;20019;-87
2021/01/20 00:17:04;;;;;;;12.03;4.90;;;;;;;;;;5133009;27;20042;-87
2021/01/20 00:19:29;;;;;;;10.67;5.17;;;;;;;;;;5133142;27;20015;-87
2021/01/20 00:21:54;;;;;;;15.90;5.30;;;;;;;;;;5134280;27;20393;-87
2021/01/20 00:24:19;;;;;;;11.00;5.00;;;;;;;;;;5133658;27;20030;-87
2021/01/20 00:26:44;;;;;;;12.23;4.80;;;;;;;;;;5133256;27;20031;-88
2021/01/20 00:29:09;;;;;;;13.57;5.80;;;;;;;;;;5127949;27;20024;-88
2021/01/20 00:31:35;;;;;;;9.23;4.47;;;;;;;;;;5125628;27;20076;-88
2021/01/20 00:34:00;;;;;;;14.60;5.17;;;;;;;;;;5134782;27;20015;-88
2021/01/20 00:36:25;;;;;;;13.17;6.30;;;;;;;;;;5133349;27;20026;-88
2021/01/20 00:38:50;;;;;;;13.87;5.30;;;;;;;;;;5132841;27;20015;-87
2021/01/20 00:41:16;;;;;;;13.40;5.87;;;;;;;;;;5133705;27;20114;-87
2021/01/20 00:43:41;;;;;;;11.33;4.97;;;;;;;;;;5133015;27;20465;-88
2021/01/20 00:46:07;;;;;;;14.80;5.53;;;;;;;;;;5119807;27;20076;-88
2021/01/20 00:48:32;;;;;;;12.67;5.70;;;;;;;;;;5133685;27;20011;-88
2021/01/20 00:50:57;;;;;;;11.50;5.73;;;;;;;;;;5132616;27;20027;-87
2021/01/20 00:53:23;;;;;;;11.80;4.97;;;;;;;;;;5132957;27;20015;-86
2021/01/20 00:55:48;;;;;;;9.73;4.90;;;;;;;;;;5132918;27;20487;-87
2021/01/20 00:58:13;;;;;;;10.23;4.40;;;;;;;;;;5131587;27;20020;-87
2021/01/20 01:00:39;;;;;;;11.83;5.50;;;;;;;;;;5134054;27;20015;-88
2021/01/20 01:03:04;;;;;;;12.53;4.57;;;;;;;;;;5132682;27;20390;-87
2021/01/20 01:05:29;;;;;;;11.33;5.00;;;;;;;;;;5132732;27;20019;-87
2021/01/20 01:07:55;;;;;;;12.20;5.30;;;;;;;;;;5132068;27;20110;-86
2021/01/20 01:10:20;;;;;;;14.43;5.13;;;;;;;;;;5133247;27;20043;-87
2021/01/20 01:12:45;;;;;;;14.23;5.60;;;;;;;;;;5129023;27;20023;-87
2021/01/20 01:15:10;;;;;;;15.97;5.17;;;;;;;;;;5128624;27;20019;-87
2021/01/20 01:17:36;;;;;;;15.40;5.70;;;;;;;;;;5131899;27;20122;-87
2021/01/20 01:20:01;;;;;;;12.97;5.03;;;;;;;;;;5133560;27;20382;-87
2021/01/20 01:22:26;;;;;;;14.57;4.50;;;;;;;;;;5132056;27;20425;-88
2021/01/20 01:24:51;;;;;;;12.90;5.30;;;;;;;;;;5133285;27;20016;-87
2021/01/20 01:27:17;;;;;;;14.03;4.93;;;;;;;;;;5131699;27;20025;-87
2021/01/20 01:29:42;;;;;;;9.47;4.90;;;;;;;;;;5132102;27;20007;-87
2021/01/20 01:32:07;;;;;;;14.53;4.47;;;;;;;;;;5133299;27;20055;-87
2021/01/20 01:34:32;;;;;;;7.40;3.77;;;;;;;;;;5132392;27;20374;-87
2021/01/20 01:36:58;;;;;;;11.80;5.70;;;;;;;;;;5133185;27;20071;-87
2021/01/20 01:39:23;;;;;;;10.60;5.03;;;;;;;;;;5132573;27;20381;-87
2021/01/20 01:41:48;;;;;;;10.43;4.43;;;;;;;;;;5131088;27;20027;-87
2021/01/20 01:44:16;;;;;;;12.87;4.57;;;;;;;;;;5132155;27;20369;-88
2021/01/20 01:46:41;;;;;;;7.57;4.27;;;;;;;;;;5131747;27;20542;-87
2021/01/20 01:49:06;;;;;;;11.87;4.57;;;;;;;;;;5131046;27;20101;-87
2021/01/20 01:51:32;;;;;;;9.47;5.07;;;;;;;;;;5131775;27;20042;-87
2021/01/20 01:53:57;;;;;;;10.50;4.43;;;;;;;;;;5132537;27;20406;-87
2021/01/20 01:56:25;;;;;;;14.13;4.70;;;;;;;;;;5131918;27;20015;-87
2021/01/20 01:58:52;;;;;;;9.73;4.13;;;;;;;;;;5130963;27;20015;-87
2021/01/20 02:01:18;;;;;;;11.53;4.23;;;;;;;;;;5132566;27;20015;-87
2021/01/20 02:03:43;;;;;;;8.67;4.40;;;;;;;;;;5132865;27;20129;-87
2021/01/20 02:06:08;;;;;;;12.33;4.10;;;;;;;;;;5131405;27;20015;-87
2021/01/20 02:08:34;;;;;;;10.53;4.80;;;;;;;;;;5131355;27;20099;-87
2021/01/20 02:11:09;;;;;;;12.70;4.67;;;;;;;;;;5132654;27;20023;-87
2021/01/20 02:13:46;;;;;;;10.47;4.50;;;;;;;;;;5118216;27;20019;-87
2021/01/20 02:16:11;;;;;;;9.70;4.50;;;;;;;;;;5131390;27;20542;-87
2021/01/20 02:18:37;;;;;;;9.53;4.90;;;;;;;;;;5130937;27;20043;-87
2021/01/20 02:21:05;;;;;;;11.33;4.50;;;;;;;;;;5131369;27;20047;-87
2021/01/20 02:23:32;;;;;;;13.60;5.07;;;;;;;;;;5131178;27;20015;-87
2021/01/20 02:26:12;;;;;;;11.57;4.67;;;;;;;;;;5131496;27;20076;-88
2021/01/20 02:28:52;;;;;;;12.67;4.73;;;;;;;;;;5128042;27;20019;-88
2021/01/20 02:31:20;;;;;;;11.33;4.50;;;;;;;;;;5124287;27;20015;-87
2021/01/20 02:33:46;;;;;;;10.90;4.03;;;;;;;;;;5132684;27;20030;-87
2021/01/20 02:36:12;;;;;;;11.37;4.70;;;;;;;;;;5130529;27;20329;-87
2021/01/20 02:38:38;;;;;;;12.90;4.57;;;;;;;;;;5130507;27;20102;-87
2021/01/20 02:41:03;;;;;;;12.80;4.93;;;;;;;;;;5131172;27;20484;-88
2021/01/20 02:43:29;;;;;;;11.87;5.00;;;;;;;;;;5130617;27;20019;-87
2021/01/20 02:45:54;;;;;;;10.07;4.37;;;;;;;;;;5130811;27;20011;-86
2021/01/20 02:48:20;;;;;;;8.63;4.77;;;;;;;;;;5130484;27;20015;-88
2021/01/20 02:50:45;;;;;;;12.33;4.57;;;;;;;;;;5132081;27;20021;-87
2021/01/20 02:53:14;;;;;;;8.97;4.07;;;;;;;;;;5132264;27;20083;-87
2021/01/20 02:55:46;;;;;;;10.03;4.67;;;;;;;;;;5130829;27;20218;-88
2021/01/20 02:58:13;;;;;;;9.93;4.57;;;;;;;;;;5129910;27;20025;-88
2021/01/20 03:00:39;;;;;;;10.33;4.67;;;;;;;;;;5130076;27;20403;-87
2021/01/20 03:03:06;;;;;;;8.20;4.30;;;;;;;;;;5131625;27;20102;-87
2021/01/20 03:05:33;;;;;;;5.43;3.40;;;;;;;;;;5130074;27;20535;-87
2021/01/20 03:07:59;;;;;;;10.80;3.83;;;;;;;;;;5115410;27;20018;-87
2021/01/20 03:10:24;;;;;;;9.93;3.87;;;;;;;;;;5131877;27;20523;-88
2021/01/20 03:12:49;;;;;;;8.87;3.73;;;;;;;;;;5131314;27;20019;-87
2021/01/20 03:15:21;;;;;;;9.53;3.30;;;;;;;;;;5130199;27;20030;-87
2021/01/20 03:17:46;;;;;;;6.57;3.60;;;;;;;;;;5129926;28;20145;-87
2021/01/20 03:20:11;;;;;;;7.17;3.80;;;;;;;;;;5129794;28;20056;-87
2021/01/20 03:22:37;;;;;;;10.23;3.60;;;;;;;;;;5130197;28;20513;-87
2021/01/20 03:25:02;;;;;;;7.20;3.50;;;;;;;;;;5130286;28;20022;-87
2021/01/20 03:27:27;;;;;;;8.47;4.10;;;;;;;;;;5130849;27;20015;-87
2021/01/20 03:29:52;;;;;;;7.93;3.07;;;;;;;;;;5129865;28;20141;-87
2021/01/20 03:32:18;;;;;;;6.90;3.40;;;;;;;;;;5129792;28;20405;-87
2021/01/20 03:34:43;;;;;;;8.03;3.70;;;;;;;;;;5130051;28;20008;-87
2021/01/20 03:37:08;;;;;;;8.07;3.90;;;;;;;;;;5129830;28;20015;-87
2021/01/20 03:39:33;;;;;;;8.43;3.13;;;;;;;;;;5130046;28;20233;-87
2021/01/20 03:41:58;;;;;;;4.93;2.70;;;;;;;;;;5131483;28;20023;-87
2021/01/20 03:44:23;;;;;;;8.30;3.93;;;;;;;;;;5130058;28;20023;-87
2021/01/20 03:46:52;;;;;;;9.73;4.07;;;;;;;;;;5130454;27;20015;-87
2021/01/20 03:49:17;;;;;;;11.30;4.10;;;;;;;;;;5130473;27;20019;-87
2021/01/20 03:51:42;;;;;;;14.60;4.47;;;;;;;;;;5130500;27;20371;-87
2021/01/20 03:54:07;;;;;;;8.63;3.93;;;;;;;;;;5131892;27;20538;-87
2021/01/20 03:56:32;;;;;;;8.93;3.90;;;;;;;;;;5133887;27;20015;-87
2021/01/20 03:58:58;;;;;;;10.27;4.50;;;;;;;;;;5133169;27;20079;-87
2021/01/20 04:01:23;;;;;;;3.80;2.03;;;;;;;;;;5135127;27;20038;-87
2021/01/20 04:03:48;;;;;;;8.77;4.37;;;;;;;;;;5134179;27;20026;-87
2021/01/20 04:06:14;;;;;;;9.50;4.27;;;;;;;;;;5133935;27;20034;-87
2021/01/20 04:08:39;;;;;;;11.67;4.47;;;;;;;;;;5135145;27;20406;-88
2021/01/20 04:11:04;;;;;;;6.17;3.33;;;;;;;;;;5133550;27;20037;-87
2021/01/20 04:13:30;;;;;;;7.77;3.20;;;;;;;;;;5134525;27;20035;-87
2021/01/20 04:15:55;;;;;;;7.93;4.13;;;;;;;;;;5133389;27;20015;-87
2021/01/20 04:18:20;;;;;;;8.43;3.17;;;;;;;;;;5134830;27;20058;-87
2021/01/20 04:20:47;;;;;;;10.67;3.93;;;;;;;;;;5133899;27;20507;-87
2021/01/20 04:23:12;;;;;;;10.07;3.87;;;;;;;;;;5133631;27;20137;-87
2021/01/20 04:25:37;;;;;;;7.77;3.93;;;;;;;;;;5133690;27;20106;-87
2021/01/20 04:28:02;;;;;;;7.00;3.83;;;;;;;;;;5132767;27;20119;-87
2021/01/20 04:30:27;;;;;;;11.70;3.63;;;;;;;;;;5133042;27;20019;-87
2021/01/20 04:32:53;;;;;;;5.73;3.20;;;;;;;;;;5133102;27;20047;-87
2021/01/20 04:35:18;;;;;;;8.87;3.07;;;;;;;;;;5133119;27;20064;-87
2021/01/20 04:37:43;;;;;;;4.97;3.00;;;;;;;;;;5132785;27;20061;-87
2021/01/20 04:40:09;;;;;;;9.43;3.47;;;;;;;;;;5133138;27;20022;-87
2021/01/20 04:42:34;;;;;;;7.13;3.03;;;;;;;;;;5132850;27;20011;-87
2021/01/20 04:44:59;;;;;;;5.53;2.60;;;;;;;;;;5133343;27;20477;-87
2021/01/20 04:47:26;;;;;;;7.20;2.80;;;;;;;;;;5132606;27;20023;-87
2021/01/20 04:49:52;;;;;;;6.73;2.80;;;;;;;;;;5134259;27;20027;-87
2021/01/20 04:52:18;;;;;;;5.20;2.40;;;;;;;;;;5132875;27;20104;-87
2021/01/20 04:54:44;;;;;;;7.37;2.70;;;;;;;;;;5133156;27;20344;-87
2021/01/20 04:57:11;;;;;;;6.33;2.60;;;;;;;;;;5132164;27;20019;-88
2021/01/20 04:59:36;;;;;;;5.67;2.60;;;;;;;;;;5132531;27;20473;-87
2021/01/20 05:02:02;;;;;;;6.80;2.83;;;;;;;;;;5132887;27;20122;-87
2021/01/20 05:04:27;;;;;;;7.57;2.70;;;;;;;;;;5133041;27;20454;-87
2021/01/20 05:06:53;;;;;;;5.70;2.60;;;;;;;;;;5134003;27;20109;-87
2021/01/20 05:09:18;;;;;;;6.20;2.47;;;;;;;;;;5133735;27;20030;-87
2021/01/20 05:11:44;;;;;;;6.50;2.70;;;;;;;;;;5131950;27;20462;-87
2021/01/20 05:14:09;;;;;;;6.17;2.83;;;;;;;;;;5132643;27;20411;-87
2021/01/20 05:16:35;;;;;;;5.93;2.93;;;;;;;;;;5132104;27;20092;-88
2021/01/20 05:19:00;;;;;;;5.90;2.20;;;;;;;;;;5132186;27;20046;-87
2021/01/20 05:21:25;;;;;;;4.23;2.40;;;;;;;;;;5133547;27;20857;-87
2021/01/20 05:23:50;;;;;;;5.13;2.47;;;;;;;;;;5132544;27;20057;-87
2021/01/20 05:26:16;;;;;;;6.27;2.60;;;;;;;;;;5131916;27;20110;-87
2021/01/20 05:28:42;;;;;;;6.30;2.40;;;;;;;;;;5131784;27;20424;-87
2021/01/20 05:31:07;;;;;;;4.30;2.30;;;;;;;;;;5132332;27;20110;-87
2021/01/20 05:33:36;;;;;;;7.20;2.40;;;;;;;;;;5133854;27;20518;-87
2021/01/20 05:36:02;;;;;;;5.87;2.57;;;;;;;;;;5133728;27;20365;-87
2021/01/20 05:38:37;;;;;;;5.40;2.27;;;;;;;;;;5131260;27;20106;-87
2021/01/20 05:41:19;;;;;;;9.10;2.73;;;;;;;;;;5132626;27;20019;-87
2021/01/20 05:43:44;;;;;;;6.60;3.40;;;;;;;;;;5131975;27;20109;-88
2021/01/20 05:46:10;;;;;;;8.27;3.83;;;;;;;;;;5132206;27;20110;-88
2021/01/20 05:48:45;;;;;;;7.50;3.30;;;;;;;;;;5131806;27;20092;-87
2021/01/20 05:51:11;;;;;;;7.63;3.03;;;;;;;;;;5132090;27;20356;-88
2021/01/20 05:53:47;;;;;;;9.53;4.07;;;;;;;;;;5131814;27;20025;-87
2021/01/20 05:56:12;;;;;;;9.00;2.80;;;;;;;;;;5118245;27;20064;-87
2021/01/20 05:58:39;;;;;;;5.30;2.20;;;;;;;;;;5131642;27;20019;-88
2021/01/20 06:01:04;;;;;;;5.47;2.37;;;;;;;;;;5132095;27;20412;-87
2021/01/20 06:03:30;;;;;;;6.33;2.77;;;;;;;;;;5132089;27;20026;-87
2021/01/20 06:05:55;;;;;;;8.30;2.73;;;;;;;;;;5132565;27;20015;-87
2021/01/20 06:08:20;;;;;;;5.50;2.20;;;;;;;;;;5131314;27;20433;-88
2021/01/20 06:10:45;;;;;;;10.80;3.10;;;;;;;;;;5130691;27;20470;-87
2021/01/20 06:13:10;;;;;;;5.13;2.60;;;;;;;;;;5131107;27;20015;-86
2021/01/20 06:15:36;;;;;;;6.93;2.77;;;;;;;;;;5132707;27;20462;-87
2021/01/20 06:18:01;;;;;;;6.07;2.73;;;;;;;;;;5125738;27;20011;-88
2021/01/20 06:20:27;;;;;;;6.17;2.70;;;;;;;;;;5121950;27;20025;-87
2021/01/20 06:22:53;;;;;;;7.47;2.70;;;;;;;;;;5131164;27;20110;-87
2021/01/20 06:25:28;;;;;;;5.77;2.93;;;;;;;;;;5130954;27;20015;-87
2021/01/20 06:27:54;;;;;;;5.13;2.70;;;;;;;;;;5129868;27;20027;-87
2021/01/20 06:30:24;;;;;;;5.10;2.30;;;;;;;;;;5130851;27;20030;-87
2021/01/20 06:32:50;;;;;;;5.43;2.60;;;;;;;;;;5131021;27;20485;-88
2021/01/20 06:35:15;;;;;;;7.13;2.40;;;;;;;;;;5130662;27;20015;-87
2021/01/20 06:37:45;;;;;;;5.00;2.17;;;;;;;;;;5130742;27;20479;-88
2021/01/20 06:40:30;;;;;;;5.00;2.27;;;;;;;;;;5131026;27;20113;-87
2021/01/20 06:42:55;;;;;;;4.60;2.20;;;;;;;;;;5115924;27;20027;-87
2021/01/20 06:45:22;;;;;;;6.33;2.70;;;;;;;;;;5132052;27;20090;-87
2021/01/20 06:47:59;;;;;;;4.00;2.43;;;;;;;;;;5131295;27;20004;-87
2021/01/20 06:50:25;;;;;;;4.90;2.07;;;;;;;;;;5130246;27;20023;-87
2021/01/20 06:53:03;;;;;;;6.00;3.00;;;;;;;;;;5130550;27;20131;-88
2021/01/20 06:55:38;;;;;;;4.50;2.77;;;;;;;;;;5130978;27;20015;-88
2021/01/20 06:58:15;;;;;;;8.30;3.60;;;;;;;;;;5130005;27;20036;-87
2021/01/20 07:00:41;;;;;;;5.80;2.90;;;;;;;;;;5131699;27;20015;-87
2021/01/20 07:03:06;;;;;;;5.37;3.30;;;;;;;;;;5130418;27;20035;-87
2021/01/20 07:05:49;;;;;;;4.53;2.00;;;;;;;;;;5130460;27;20022;-88
2021/01/20 07:08:15;;;;;;;5.57;2.63;;;;;;;;;;5114080;27;20020;-87
2021/01/20 07:10:55;;;;;;;4.43;2.23;;;;;;;;;;5123697;27;20034;-86
2021/01/20 07:13:20;;;;;;;6.60;2.30;;;;;;;;;;5129622;27;20019;-88
2021/01/20 07:15:47;;;;;;;4.83;2.33;;;;;;;;;;5131314;27;20103;-87
2021/01/20 07:18:13;;;;;;;5.57;2.70;;;;;;;;;;5130849;27;20090;-88
2021/01/20 07:20:39;;;;;;;5.90;2.27;;;;;;;;;;5130556;28;20038;-87
2021/01/20 07:23:05;;;;;;;6.77;2.80;;;;;;;;;;5130945;27;20042;-86
2021/01/20 07:25:30;;;;;;;6.97;2.30;;;;;;;;;;5130683;28;20135;-87
2021/01/20 07:27:55;;;;;;;5.27;2.30;;;;;;;;;;5129610;28;20110;-87
2021/01/20 07:30:21;;;;;;;4.67;2.37;;;;;;;;;;5129963;28;20027;-87
2021/01/20 07:32:47;;;;;;;4.57;2.00;;;;;;;;;;5130384;28;20020;-87
2021/01/20 07:35:25;;;;;;;5.53;1.67;;;;;;;;;;5115507;28;20016;-87
2021/01/20 07:38:04;;;;;;;6.93;2.53;;;;;;;;;;5130815;27;20028;-87
2021/01/20 07:40:36;;;;;;;4.77;2.13;;;;;;;;;;5131781;27;20015;-87
2021/01/20 07:43:02;;;;;;;3.63;2.10;;;;;;;;;;5130087;28;20076;-88
2021/01/20 07:45:31;;;;;;;5.93;2.47;;;;;;;;;;5130036;28;20481;-87
2021/01/20 07:47:56;;;;;;;4.13;1.90;;;;;;;;;;5129519;28;20102;-87
2021/01/20 07:50:34;;;;;;;4.73;2.10;;;;;;;;;;5129744;28;20106;-87
2021/01/20 07:52:59;;;;;;;4.67;1.97;;;;;;;;;;5130118;28;20011;-87
2021/01/20 07:55:24;;;;;;;4.90;2.10;;;;;;;;;;5129782;28;20049;-87
2021/01/20 07:57:55;;;;;;;5.03;2.13;;;;;;;;;;5128936;28;20018;-87
2021/01/20 08:00:20;;;;;;;3.73;1.70;;;;;;;;;;5130156;28;20050;-86
2021/01/20 08:02:49;;;;;;;4.67;2.27;;;;;;;;;;5129469;28;20047;-87
2021/01/20 08:05:14;;;;;;;4.10;1.77;;;;;;;;;;5130060;28;20012;-87
2021/01/20 08:07:39;;;;;;;3.60;1.80;;;;;;;;;;5129597;28;20007;-87
2021/01/20 08:10:15;;;;;;;4.07;1.77;;;;;;;;;;5129892;28;20022;-87
2021/01/20 08:12:41;;;;;;;3.23;1.70;;;;;;;;;;5122474;28;20022;-87
2021/01/20 08:15:06;;;;;;;9.00;1.63;;;;;;;;;;5110189;28;20019;-87
2021/01/20 08:17:32;;;;;;;3.20;1.77;;;;;;;;;;5123900;28;20419;-87
2021/01/20 08:19:57;;;;;;;2.87;1.70;;;;;;;;;;5129762;28;20011;-87
2021/01/20 08:22:22;;;;;;;4.40;2.00;;;;;;;;;;5129596;28;20440;-88
2021/01/20 08:24:48;;;;;;;3.20;1.97;;;;;;;;;;5129674;28;20481;-87
2021/01/20 08:27:14;;;;;;;3.13;1.80;;;;;;;;;;5128591;28;20389;-87
2021/01/20 08:29:49;;;;;;;5.23;1.60;;;;;;;;;;5129850;28;20023;-88
2021/01/20 08:32:14;;;;;;;6.27;1.70;;;;;;;;;;5129708;28;20023;-87
2021/01/20 08:34:41;;;;;;;3.43;1.63;;;;;;;;;;5131479;27;20130;-88
2021/01/20 08:37:09;;;;;;;3.73;1.50;;;;;;;;;;5131999;27;20027;-86
2021/01/20 08:39:36;;;;;;;4.10;1.37;;;;;;;;;;5133252;27;20019;-88
2021/01/20 08:42:11;;;;;;;5.70;1.87;;;;;;;;;;5133052;27;20031;-87
2021/01/20 08:44:36;;;;;;;4.23;1.93;;;;;;;;;;5124083;27;20019;-87
2021/01/20 08:47:01;;;;;;;6.17;2.10;;;;;;;;;;5133813;27;20080;-87
2021/01/20 08:49:26;;;;;;;3.67;1.90;;;;;;;;;;5135465;27;20109;-88
2021/01/20 08:51:58;;;;;;;3.53;1.90;;;;;;;;;;5132310;27;20373;-88
2021/01/20 08:54:24;;;;;;;4.07;2.20;;;;;;;;;;5134571;27;20023;-87
2021/01/20 08:56:49;;;;;;;3.03;1.37;;;;;;;;;;5134565;27;20023;-88
2021/01/20 08:59:14;;;;;;;3.67;1.90;;;;;;;;;;5133708;27;20362;-88
2021/01/20 09:01:39;;;;;;;4.93;1.90;;;;;;;;;;5134259;27;20015;-88
2021/01/20 09:04:06;;;;;;;4.23;2.40;;;;;;;;;;5134085;27;20023;-88
2021/01/20 09:06:31;;;;;;;5.93;1.70;;;;;;;;;;5134118;27;20597;-88
2021/01/20 09:08:57;;;;;;;2.77;1.67;;;;;;;;;;5134010;27;20053;-87
2021/01/20 09:11:23;;;;;;;3.60;1.90;;;;;;;;;;5132914;27;20023;-88
2021/01/20 09:13:50;;;;;;;4.03;2.07;;;;;;;;;;5133795;27;20031;-88
2021/01/20 09:16:15;;;;;;;4.50;1.80;;;;;;;;;;5134163;27;20331;-87
2021/01/20 09:18:41;;;;;;;5.30;2.07;;;;;;;;;;5133413;27;20027;-88
2021/01/20 09:21:06;;;;;;;3.60;1.70;;;;;;;;;;5135468;27;20034;-88
2021/01/20 09:23:32;;;;;;;4.93;1.70;;;;;;;;;;5133746;27;20034;-88
2021/01/20 09:25:58;;;;;;;4.03;1.90;;;;;;;;;;5132948;27;20038;-88
2021/01/20 09:28:23;;;;;;;4.27;1.83;;;;;;;;;;5133195;27;20038;-88
2021/01/20 09:30:48;;;;;;;4.57;1.70;;;;;;;;;;5127823;27;20055;-88
2021/01/20 09:33:14;;;;;;;5.10;1.80;;;;;;;;;;5125490;27;20015;-88
2021/01/20 09:35:39;;;;;;;11.10;1.80;;;;;;;;;;5129624;27;20458;-87
2021/01/20 09:38:05;;;;;;;4.03;1.80;;;;;;;;;;5125492;27;20106;-87
2021/01/20 09:40:30;;;;;;;3.27;1.60;;;;;;;;;;5118597;27;20059;-87
2021/01/20 09:42:56;;;;;;;6.20;1.80;;;;;;;;;;5131741;27;20023;-87
2021/01/20 09:45:29;;;;;;;6.43;1.83;;;;;;;;;;5132923;27;20023;-88
2021/01/20 09:47:55;;;;;;;4.97;1.53;;;;;;;;;;5131205;27;20516;-88
2021/01/20 09:50:20;;;;;;;4.17;1.77;;;;;;;;;;5131696;27;20027;-88
2021/01/20 09:52:47;;;;;;;4.23;1.80;;;;;;;;;;5132267;27;20038;-88
2021/01/20 09:55:13;;;;;;;4.77;1.50;;;;;;;;;;5131668;27;20019;-88
2021/01/20 09:57:38;;;;;;;5.13;1.80;;;;;;;;;;5131092;27;20028;-88
2021/01/20 10:00:05;;;;;;;2.93;1.40;;;;;;;;;;5131544;27;20480;-88
2021/01/20 10:02:30;;;;;;;3.70;1.67;;;;;;;;;;5131078;27;20019;-88
2021/01/20 10:04:55;;;;;;;3.83;1.93;;;;;;;;;;5131577;27;20513;-87
2021/01/20 10:07:22;;;;;;;5.87;1.33;;;;;;;;;;5131340;27;20034;-87
2021/01/20 10:09:47;;;;;;;3.23;1.50;;;;;;;;;;5132954;27;20030;-88
2021/01/20 10:12:14;;;;;;;4.97;2.47;;;;;;;;;;5130985;27;20435;-88
2021/01/20 10:14:40;;;;;;;3.00;1.90;;;;;;;;;;5131380;27;20043;-88
2021/01/20 10:17:06;;;;;;;3.43;1.70;;;;;;;;;;5131235;27;20462;-88
2021/01/20 10:19:31;;;;;;;4.87;1.77;;;;;;;;;;5131241;27;20031;-88
2021/01/20 10:21:56;;;;;;;3.23;1.90;;;;;;;;;;5131270;27;20050;-88
2021/01/20 10:24:21;;;;;;;3.83;1.90;;;;;;;;;;5131514;27;20474;-88
2021/01/20 10:26:47;;;;;;;3.33;1.20;;;;;;;;;;5130528;27;20389;-87
2021/01/20 10:29:12;;;;;;;3.90;1.70;;;;;;;;;;5131707;27;20023;-88
2021/01/20 10:31:38;;;;;;;4.17;1.90;;;;;;;;;;5130435;27;20020;-86
2021/01/20 10:34:03;;;;;;;6.10;2.47;;;;;;;;;;5119013;27;20019;-88
2021/01/20 10:36:29;;;;;;;7.53;2.10;;;;;;;;;;5132809;27;20019;-88
2021/01/20 10:38:54;;;;;;;4.70;2.00;;;;;;;;;;5130655;27;20040;-88
2021/01/20 10:41:21;;;;;;;6.07;2.20;;;;;;;;;;5131040;27;20084;-88
2021/01/20 10:43:46;;;;;;;4.53;2.17;;;;;;;;;;5131180;27;20019;-88
2021/01/20 10:46:12;;;;;;;11.70;2.43;;;;;;;;;;5131292;27;20022;-88
2021/01/20 10:48:37;;;;;;;6.37;2.23;;;;;;;;;;5130983;27;20058;-88
2021/01/20 10:51:02;;;;;;;5.67;1.90;;;;;;;;;;5131325;27;20060;-88
2021/01/20 10:53:27;;;;;;;3.67;1.90;;;;;;;;;;5165861;27;20015;-87
2021/01/20 10:55:53;;;;;;;3.47;2.13;;;;;;;;;;5130510;27;20430;-88
2021/01/20 10:58:18;;;;;;;4.60;2.20;;;;;;;;;;5129396;27;20022;-88
2021/01/20 11:00:46;;;;;;;4.60;2.00;;;;;;;;;;5132188;27;20462;-88
2021/01/20 11:03:12;;;;;;;4.77;1.93;;;;;;;;;;5131451;27;20098;-88
2021/01/20 11:05:38;;;;;;;13.07;2.50;;;;;;;;;;5129715;27;20057;-88
2021/01/20 11:08:03;;;;;;;5.67;2.07;;;;;;;;;;5129524;27;20027;-86
2021/01/20 11:10:29;;;;;;;4.93;2.03;;;;;;;;;;5131286;27;20027;-87
2021/01/20 11:12:54;;;;;;;4.90;1.80;;;;;;;;;;5131719;27;20473;-87
2021/01/20 11:15:19;;;;;;;4.03;1.67;;;;;;;;;;5129365;27;20126;-88
2021/01/20 11:17:44;;;;;;;4.27;1.70;;;;;;;;;;5131212;27;20019;-88
2021/01/20 11:20:10;;;;;;;4.43;1.93;;;;;;;;;;5131320;27;20027;-87
2021/01/20 11:22:35;;;;;;;7.63;2.50;;;;;;;;;;5130591;28;20071;-87
2021/01/20 11:25:03;;;;;;;4.20;2.10;;;;;;;;;;5130924;28;20019;-88
2021/01/20 11:27:28;;;;;;;4.77;1.53;;;;;;;;;;5131136;28;20176;-88
2021/01/20 11:29:53;;;;;;;4.00;1.73;;;;;;;;;;5131243;28;20470;-87
2021/01/20 11:32:19;;;;;;;4.20;2.13;;;;;;;;;;5131155;28;20652;-88
2021/01/20 11:34:44;;;;;;;3.23;2.00;;;;;;;;;;5131636;28;20068;-88
2021/01/20 11:37:09;;;;;;;6.20;2.13;;;;;;;;;;5131304;28;20037;-86
2021/01/20 11:39:36;;;;;;;5.40;1.80;;;;;;;;;;5132451;28;20429;-88
2021/01/20 11:42:01;;;;;;;5.33;1.90;;;;;;;;;;5133207;27;20023;-88
2021/01/20 11:44:27;;;;;;;4.25;1.65;;;;;;;;;;5131284;28;20538;-88
2021/01/20 11:46:52;;;;;;;5.63;1.95;;;;;;;;;;5132974;28;20015;-87
2021/01/20 11:49:17;;;;;;;7.43;1.95;;;;;;;;;;5132661;28;20466;-87
2021/01/20 11:51:42;;;;;;;4.25;2.05;;;;;;;;;;5132756;28;20023;-87
2021/01/20 11:54:07;;;;;;;7.50;2.00;;;;;;;;;;5131641;28;20045;-89
2021/01/20 11:56:33;;;;;;;3.97;1.83;;;;;;;;;;5132744;28;20075;-87
2021/01/20 11:58:58;;;;;;;5.83;2.27;;;;;;;;;;5131599;28;20019;-87
2021/01/20 12:01:23;;;;;;;6.23;2.33;;;;;;;;;;5129454;28;20034;-87
2021/01/20 12:03:50;;;;;;;6.97;2.20;;;;;;;;;;5131092;28;20114;-88
2021/01/20 12:06:15;;;;;;;4.17;1.97;;;;;;;;;;5130909;28;20458;-87
2021/01/20 12:08:40;;;;;;;4.20;1.80;;;;;;;;;;5130711;27;20019;-87
2021/01/20 12:11:05;;;;;;;4.93;2.17;;;;;;;;;;5133327;27;20462;-87
2021/01/20 12:13:31;;;;;;;4.33;2.00;;;;;;;;;;5134820;27;20019;-87
2021/01/20 12:15:56;;;;;;;5.17;2.77;;;;;;;;;;5134390;27;20098;-87
2021/01/20 12:18:21;;;;;;;5.47;2.23;;;;;;;;;;5134241;27;20098;-88
2021/01/20 12:20:46;;;;;;;6.20;2.23;;;;;;;;;;5135115;27;20023;-90
2021/01/20 12:23:12;;;;;;;5.43;2.00;;;;;;;;;;5135035;27;20023;-89
2021/01/20 12:25:37;;;;;;;5.27;2.20;;;;;;;;;;5135626;27;20060;-89
2021/01/20 12:28:02;;;;;;;4.77;2.07;;;;;;;;;;5136530;27;20102;-89
2021/01/20 12:30:27;;;;;;;2.58;1.13;;;;;;;;;;5135340;27;20023;-89
2021/01/20 12:32:53;;;;;;;3.97;1.77;;;;;;;;;;5135316;27;20019;-88
2021/01/20 12:35:18;;;;;;;8.85;2.00;;;;;;;;;;5135928;27;20412;-88
2021/01/20 12:37:43;;;;;;;4.30;1.87;;;;;;;;;;5134956;27;20016;-87
2021/01/20 12:40:08;;;;;;;10.53;1.80;;;;;;;;;;5135784;27;20019;-89
2021/01/20 12:42:34;;;;;;;4.57;1.90;;;;;;;;;;5135664;27;20037;-94
2021/01/20 12:44:59;;;;;;;6.37;1.97;;;;;;;;;;5136659;27;20470;-90
2021/01/20 12:47:24;;;;;;;5.40;1.95;;;;;;;;;;5136784;27;20016;-92
2021/01/20 12:49:49;;;;;;;4.50;1.52;;;;;;;;;;5137773;27;20097;-92
2021/01/20 12:52:14;;;;;;;5.85;2.38;;;;;;;;;;5137545;27;20473;-92
2021/01/20 12:54:40;;;;;;;3.63;1.67;;;;;;;;;;5136800;27;20505;-93
2021/01/20 12:57:05;;;;;;;3.83;1.65;;;;;;;;;;5123363;27;20471;-94
2021/01/20 12:59:30;;;;;;;3.80;1.60;;;;;;;;;;5172720;27;20018;-95
2021/01/20 13:01:55;;;;;;;3.95;1.60;;;;;;;;;;5136068;27;20114;-93
2021/01/20 13:04:20;;;;;;;6.68;1.80;;;;;;;;;;5135234;27;20140;-92
2021/01/20 13:06:46;;;;;;;4.43;1.67;;;;;;;;;;5135617;27;20019;-93
2021/01/20 13:09:12;;;;;;;4.03;1.80;;;;;;;;;;5135432;27;20027;-92
2021/01/20 13:11:37;;;;;;;4.30;1.48;;;;;;;;;;5135215;27;20030;-92
2021/01/20 13:14:02;;;;;;;3.78;1.90;;;;;;;;;;5135122;27;20012;-90
2021/01/20 13:16:27;;;;;;;5.13;1.27;;;;;;;;;;5126323;27;20020;-92
2021/01/20 13:18:52;;;;;;;3.88;1.80;;;;;;;;;;5128089;27;20114;-94
2021/01/20 13:21:18;;;;;;;4.93;1.90;;;;;;;;;;5135379;27;20027;-96
2021/01/20 13:23:43;;;;;;;5.65;2.10;;;;;;;;;;5139452;27;20057;-96
2021/01/20 13:26:11;;;;;;;3.78;1.60;;;;;;;;;;5143881;27;20023;-96
2021/01/20 13:28:37;;;;;;;3.85;1.67;;;;;;;;;;5137697;27;20008;-96
2021/01/20 13:31:03;;;;;;;4.55;1.70;;;;;;;;;;5131038;27;20421;-96
2021/01/20 13:33:28;;;;;;;8.20;2.22;;;;;;;;;;5126764;27;20042;-94
2021/01/20 13:35:53;;;;;;;7.35;2.30;;;;;;;;;;5141902;27;20118;-93
2021/01/20 13:38:18;;;;;;;3.08;1.55;;;;;;;;;;5145765;27;20015;-96
2021/01/20 13:40:44;;;;;;;4.68;1.98;;;;;;;;;;5146608;27;20034;-96
2021/01/20 13:43:09;;;;;;;8.48;2.00;;;;;;;;;;5140926;27;20019;-94
2021/01/20 13:45:34;;;;;;;5.30;1.98;;;;;;;;;;5145417;27;20060;-84
2021/01/20 13:47:59;;;;;;;5.85;2.08;;;;;;;;;;5134320;27;20370;-83
2021/01/20 13:50:24;;;;;;;4.63;2.40;;;;;;;;;;5132848;27;20015;-83
2021/01/20 13:52:50;;;;;;;6.72;2.20;;;;;;;;;;5133465;27;20015;-83
2021/01/20 13:55:15;;;;;;;6.70;2.10;;;;;;;;;;5133125;27;20015;-83
2021/01/20 13:57:40;;;;;;;5.45;1.98;;;;;;;;;;5133029;27;20523;-86
2021/01/20 14:00:06;;;;;;;3.60;1.57;;;;;;;;;;5134190;27;20023;-86
2021/01/20 14:02:31;;;;;;;5.10;2.25;;;;;;;;;;5133677;27;20058;-85
2021/01/20 14:04:56;;;;;;;4.57;1.52;;;;;;;;;;5133000;27;20068;-86
2021/01/20 14:07:22;;;;;;;5.90;3.10;;;;;;;;;;5132715;27;20661;-86
2021/01/20 14:09:47;;;;;;;5.45;2.50;;;;;;;;;;5133125;27;20035;-85
2021/01/20 14:12:12;;;;;;;6.60;2.80;;;;;;;;;;5131955;27;20114;-86
2021/01/20 14:14:37;;;;;;;4.60;2.22;;;;;;;;;;5132751;27;20099;-85
2021/01/20 14:17:02;;;;;;;2.95;2.10;;;;;;;;;;5132322;27;20027;-85
2021/01/20 14:19:28;;;;;;;3.45;1.55;;;;;;;;;;5132948;27;20041;-86
2021/01/20 14:21:53;;;;;;;3.65;1.50;;;;;;;;;;5133557;27;20019;-85
2021/01/20 14:24:21;;;;;;;5.40;2.10;;;;;;;;;;5132778;27;20849;-85
2021/01/20 14:26:48;;;;;;;4.10;1.60;;;;;;;;;;5133696;27;20023;-85
2021/01/20 14:29:14;;;;;;;9.85;2.13;;;;;;;;;;5132344;27;20019;-85
2021/01/20 14:31:39;;;;;;;6.72;2.00;;;;;;;;;;5128579;27;20029;-85
2021/01/20 14:34:04;;;;;;;6.20;1.75;;;;;;;;;;5131387;27;20462;-85